sensor_id;sensor_type;location;lat;lon;timestamp;P1;durP1;ratioP1;P2;durP2;ratioP2
43801;SDS011;29429;51.074;13.764;2023-12-20T00:01:15;3.67;;;2.92;;
43801;SDS011;29429;51.074;13.764;2023-12-20T00:03:42;4.75;;;3.17;;
43801;SDS011;29429;51.074;13.764;2023-12-20T00:06:09;5.25;;;3.80;;
43801;SDS011;29429;51.074;13.764;2023-12-20T00:08:37;3.90;;;3.05;;
43801;SDS011;29429;51.074;13.764;2023-12-20T00:11:04;4.80;;;3.47;;
43801;SDS011;29429;51.074;13.764;2023-12-20T00:13:31;5.18;;;3.10;;
43801;SDS011;29429;51.074;13.764;2023-12-20T00:15:57;3.88;;;2.88;;
43801;SDS011;29429;51.074;13.764;2023-12-20T00:18:25;5.22;;;3.25;;
43801;SDS011;29429;51.074;13.764;2023-12-20T00:20:52;3.83;;;2.88;;
43801;SDS011;29429;51.074;13.764;2023-12-20T00:23:19;3.72;;;2.70;;
43801;SDS011;29429;51.074;13.764;2023-12-20T00:25:46;5.28;;;2.80;;
43801;SDS011;29429;51.074;13.764;2023-12-20T00:28:13;3.60;;;2.42;;
43801;SDS011;29429;51.074;13.764;2023-12-20T00:30:40;4.07;;;2.67;;
43801;SDS011;29429;51.074;13.764;2023-12-20T00:33:07;3.90;;;2.33;;
43801;SDS011;29429;51.074;13.764;2023-12-20T00:35:34;4.18;;;2.75;;
43801;SDS011;29429;51.074;13.764;2023-12-20T00:38:01;3.75;;;2.45;;
43801;SDS011;29429;51.074;13.764;2023-12-20T00:40:28;3.33;;;2.30;;
43801;SDS011;29429;51.074;13.764;2023-12-20T00:42:55;4.15;;;2.30;;
43801;SDS011;29429;51.074;13.764;2023-12-20T00:45:22;3.17;;;2.38;;
43801;SDS011;29429;51.074;13.764;2023-12-20T00:47:49;3.13;;;2.00;;
43801;SDS011;29429;51.074;13.764;2023-12-20T00:50:16;4.43;;;3.22;;
43801;SDS011;29429;51.074;13.764;2023-12-20T00:52:44;3.03;;;2.55;;
43801;SDS011;29429;51.074;13.764;2023-12-20T00:55:11;3.30;;;2.78;;
43801;SDS011;29429;51.074;13.764;2023-12-20T00:57:38;6.32;;;2.90;;
43801;SDS011;29429;51.074;13.764;2023-12-20T01:00:05;3.58;;;2.63;;
43801;SDS011;29429;51.074;13.764;2023-12-20T01:02:35;2.60;;;1.90;;
43801;SDS011;29429;51.074;13.764;2023-12-20T01:05:02;2.90;;;1.98;;
43801;SDS011;29429;51.074;13.764;2023-12-20T01:07:30;3.97;;;1.60;;
43801;SDS011;29429;51.074;13.764;2023-12-20T01:09:56;2.65;;;1.52;;
43801;SDS011;29429;51.074;13.764;2023-12-20T01:12:23;1.65;;;1.40;;
43801;SDS011;29429;51.074;13.764;2023-12-20T01:14:50;2.53;;;1.60;;
43801;SDS011;29429;51.074;13.764;2023-12-20T01:17:17;2.38;;;1.80;;
43801;SDS011;29429;51.074;13.764;2023-12-20T01:19:44;2.42;;;1.50;;
43801;SDS011;29429;51.074;13.764;2023-12-20T01:22:11;2.30;;;1.50;;
43801;SDS011;29429;51.074;13.764;2023-12-20T01:24:38;2.85;;;1.50;;
43801;SDS011;29429;51.074;13.764;2023-12-20T01:27:05;3.17;;;1.67;;
43801;SDS011;29429;51.074;13.764;2023-12-20T01:29:32;2.50;;;1.50;;
43801;SDS011;29429;51.074;13.764;2023-12-20T01:31:59;1.65;;;1.40;;
43801;SDS011;29429;51.074;13.764;2023-12-20T01:34:26;1.85;;;1.50;;
43801;SDS011;29429;51.074;13.764;2023-12-20T01:36:53;2.92;;;1.50;;
43801;SDS011;29429;51.074;13.764;2023-12-20T01:39:20;2.80;;;1.70;;
43801;SDS011;29429;51.074;13.764;2023-12-20T01:41:55;1.98;;;1.30;;
43801;SDS011;29429;51.074;13.764;2023-12-20T01:44:22;1.58;;;1.23;;
43801;SDS011;29429;51.074;13.764;2023-12-20T01:46:49;2.38;;;1.60;;
43801;SDS011;29429;51.074;13.764;2023-12-20T01:49:16;1.48;;;1.05;;
43801;SDS011;29429;51.074;13.764;2023-12-20T01:51:43;1.38;;;1.05;;
43801;SDS011;29429;51.074;13.764;2023-12-20T01:54:11;2.00;;;1.35;;
43801;SDS011;29429;51.074;13.764;2023-12-20T01:56:38;1.70;;;1.00;;
43801;SDS011;29429;51.074;13.764;2023-12-20T01:59:07;1.55;;;1.17;;
43801;SDS011;29429;51.074;13.764;2023-12-20T02:01:35;2.65;;;1.17;;
43801;SDS011;29429;51.074;13.764;2023-12-20T02:04:02;1.70;;;1.17;;
43801;SDS011;29429;51.074;13.764;2023-12-20T02:06:30;3.50;;;1.10;;
43801;SDS011;29429;51.074;13.764;2023-12-20T02:09:00;1.48;;;0.90;;
43801;SDS011;29429;51.074;13.764;2023-12-20T02:11:27;1.52;;;1.02;;
43801;SDS011;29429;51.074;13.764;2023-12-20T02:13:55;1.35;;;1.00;;
43801;SDS011;29429;51.074;13.764;2023-12-20T02:16:22;2.47;;;1.05;;
43801;SDS011;29429;51.074;13.764;2023-12-20T02:18:49;1.15;;;0.77;;
43801;SDS011;29429;51.074;13.764;2023-12-20T02:21:16;1.17;;;0.80;;
43801;SDS011;29429;51.074;13.764;2023-12-20T02:23:43;0.82;;;0.68;;
43801;SDS011;29429;51.074;13.764;2023-12-20T02:26:10;1.33;;;0.80;;
43801;SDS011;29429;51.074;13.764;2023-12-20T02:28:40;1.05;;;0.70;;
43801;SDS011;29429;51.074;13.764;2023-12-20T02:31:07;1.42;;;0.80;;
43801;SDS011;29429;51.074;13.764;2023-12-20T02:33:34;1.13;;;0.70;;
43801;SDS011;29429;51.074;13.764;2023-12-20T02:36:01;1.52;;;0.90;;
43801;SDS011;29429;51.074;13.764;2023-12-20T02:38:28;1.00;;;0.80;;
43801;SDS011;29429;51.074;13.764;2023-12-20T02:40:55;1.48;;;0.50;;
43801;SDS011;29429;51.074;13.764;2023-12-20T02:43:22;0.55;;;0.52;;
43801;SDS011;29429;51.074;13.764;2023-12-20T02:45:49;1.23;;;0.70;;
43801;SDS011;29429;51.074;13.764;2023-12-20T02:48:16;1.15;;;0.70;;
43801;SDS011;29429;51.074;13.764;2023-12-20T02:50:43;1.45;;;0.70;;
43801;SDS011;29429;51.074;13.764;2023-12-20T02:53:09;2.28;;;0.70;;
43801;SDS011;29429;51.074;13.764;2023-12-20T02:55:36;0.70;;;0.50;;
43801;SDS011;29429;51.074;13.764;2023-12-20T02:58:03;1.17;;;0.70;;
43801;SDS011;29429;51.074;13.764;2023-12-20T03:00:30;1.00;;;0.65;;
43801;SDS011;29429;51.074;13.764;2023-12-20T03:02:57;1.67;;;0.55;;
43801;SDS011;29429;51.074;13.764;2023-12-20T03:05:25;1.08;;;0.70;;
43801;SDS011;29429;51.074;13.764;2023-12-20T03:07:52;0.90;;;0.60;;
43801;SDS011;29429;51.074;13.764;2023-12-20T03:10:19;0.70;;;0.60;;
43801;SDS011;29429;51.074;13.764;2023-12-20T03:12:52;2.03;;;0.85;;
43801;SDS011;29429;51.074;13.764;2023-12-20T03:15:19;1.20;;;0.70;;
43801;SDS011;29429;51.074;13.764;2023-12-20T03:17:46;0.88;;;0.60;;
43801;SDS011;29429;51.074;13.764;2023-12-20T03:20:14;0.65;;;0.45;;
43801;SDS011;29429;51.074;13.764;2023-12-20T03:22:41;0.77;;;0.50;;
43801;SDS011;29429;51.074;13.764;2023-12-20T03:25:08;2.03;;;0.60;;
43801;SDS011;29429;51.074;13.764;2023-12-20T03:27:36;0.63;;;0.57;;
43801;SDS011;29429;51.074;13.764;2023-12-20T03:30:07;1.05;;;0.60;;
43801;SDS011;29429;51.074;13.764;2023-12-20T03:32:36;0.95;;;0.63;;
43801;SDS011;29429;51.074;13.764;2023-12-20T03:35:05;0.63;;;0.60;;
43801;SDS011;29429;51.074;13.764;2023-12-20T03:37:32;0.90;;;0.80;;
43801;SDS011;29429;51.074;13.764;2023-12-20T03:39:59;0.60;;;0.50;;
43801;SDS011;29429;51.074;13.764;2023-12-20T03:42:27;0.75;;;0.50;;
43801;SDS011;29429;51.074;13.764;2023-12-20T03:44:53;0.95;;;0.57;;
43801;SDS011;29429;51.074;13.764;2023-12-20T03:47:20;0.80;;;0.60;;
43801;SDS011;29429;51.074;13.764;2023-12-20T03:49:48;0.73;;;0.60;;
43801;SDS011;29429;51.074;13.764;2023-12-20T03:52:15;1.35;;;0.75;;
43801;SDS011;29429;51.074;13.764;2023-12-20T03:54:41;2.47;;;0.50;;
43801;SDS011;29429;51.074;13.764;2023-12-20T03:57:09;2.20;;;0.60;;
43801;SDS011;29429;51.074;13.764;2023-12-20T03:59:36;2.25;;;0.70;;
43801;SDS011;29429;51.074;13.764;2023-12-20T04:02:03;0.70;;;0.50;;
43801;SDS011;29429;51.074;13.764;2023-12-20T04:04:31;1.25;;;0.68;;
43801;SDS011;29429;51.074;13.764;2023-12-20T04:06:58;0.85;;;0.60;;
43801;SDS011;29429;51.074;13.764;2023-12-20T04:09:25;1.17;;;0.60;;
43801;SDS011;29429;51.074;13.764;2023-12-20T04:11:52;1.50;;;0.63;;
43801;SDS011;29429;51.074;13.764;2023-12-20T04:14:19;1.20;;;0.80;;
43801;SDS011;29429;51.074;13.764;2023-12-20T04:16:46;0.93;;;0.60;;
43801;SDS011;29429;51.074;13.764;2023-12-20T04:19:13;0.70;;;0.60;;
43801;SDS011;29429;51.074;13.764;2023-12-20T04:21:40;0.75;;;0.68;;
43801;SDS011;29429;51.074;13.764;2023-12-20T04:24:07;1.48;;;0.57;;
43801;SDS011;29429;51.074;13.764;2023-12-20T04:26:34;0.65;;;0.60;;
43801;SDS011;29429;51.074;13.764;2023-12-20T04:29:01;1.10;;;0.60;;
43801;SDS011;29429;51.074;13.764;2023-12-20T04:31:28;0.70;;;0.63;;
43801;SDS011;29429;51.074;13.764;2023-12-20T04:33:55;0.68;;;0.50;;
43801;SDS011;29429;51.074;13.764;2023-12-20T04:36:22;1.00;;;0.68;;
43801;SDS011;29429;51.074;13.764;2023-12-20T04:38:49;1.48;;;1.38;;
43801;SDS011;29429;51.074;13.764;2023-12-20T04:41:16;4.78;;;4.47;;
43801;SDS011;29429;51.074;13.764;2023-12-20T04:43:44;3.35;;;3.15;;
43801;SDS011;29429;51.074;13.764;2023-12-20T04:46:11;3.20;;;2.28;;
43801;SDS011;29429;51.074;13.764;2023-12-20T04:48:38;3.03;;;1.98;;
43801;SDS011;29429;51.074;13.764;2023-12-20T04:51:05;3.70;;;2.50;;
43801;SDS011;29429;51.074;13.764;2023-12-20T04:53:32;3.08;;;1.95;;
43801;SDS011;29429;51.074;13.764;2023-12-20T04:55:59;3.80;;;1.77;;
43801;SDS011;29429;51.074;13.764;2023-12-20T04:58:27;2.65;;;1.35;;
43801;SDS011;29429;51.074;13.764;2023-12-20T05:00:54;2.95;;;1.50;;
43801;SDS011;29429;51.074;13.764;2023-12-20T05:03:21;2.85;;;1.52;;
43801;SDS011;29429;51.074;13.764;2023-12-20T05:05:48;1.90;;;1.30;;
43801;SDS011;29429;51.074;13.764;2023-12-20T05:08:15;2.22;;;0.90;;
43801;SDS011;29429;51.074;13.764;2023-12-20T05:10:42;1.17;;;0.88;;
43801;SDS011;29429;51.074;13.764;2023-12-20T05:13:09;2.00;;;0.70;;
43801;SDS011;29429;51.074;13.764;2023-12-20T05:15:37;1.15;;;0.70;;
43801;SDS011;29429;51.074;13.764;2023-12-20T05:18:04;0.90;;;0.75;;
43801;SDS011;29429;51.074;13.764;2023-12-20T05:20:31;1.02;;;0.88;;
43801;SDS011;29429;51.074;13.764;2023-12-20T05:22:58;1.02;;;0.73;;
43801;SDS011;29429;51.074;13.764;2023-12-20T05:25:25;1.08;;;0.80;;
43801;SDS011;29429;51.074;13.764;2023-12-20T05:27:52;2.03;;;1.30;;
43801;SDS011;29429;51.074;13.764;2023-12-20T05:30:19;1.05;;;0.85;;
43801;SDS011;29429;51.074;13.764;2023-12-20T05:32:45;1.55;;;1.00;;
43801;SDS011;29429;51.074;13.764;2023-12-20T05:35:12;2.53;;;1.15;;
43801;SDS011;29429;51.074;13.764;2023-12-20T05:37:40;1.27;;;0.88;;
43801;SDS011;29429;51.074;13.764;2023-12-20T05:40:08;1.08;;;0.60;;
43801;SDS011;29429;51.074;13.764;2023-12-20T05:42:38;2.33;;;1.00;;
43801;SDS011;29429;51.074;13.764;2023-12-20T05:45:05;1.27;;;0.93;;
43801;SDS011;29429;51.074;13.764;2023-12-20T05:47:33;1.95;;;0.60;;
43801;SDS011;29429;51.074;13.764;2023-12-20T05:50:00;0.90;;;0.70;;
43801;SDS011;29429;51.074;13.764;2023-12-20T05:52:27;2.40;;;0.90;;
43801;SDS011;29429;51.074;13.764;2023-12-20T05:54:53;1.25;;;0.90;;
43801;SDS011;29429;51.074;13.764;2023-12-20T05:57:22;1.17;;;0.70;;
43801;SDS011;29429;51.074;13.764;2023-12-20T05:59:49;1.35;;;0.80;;
43801;SDS011;29429;51.074;13.764;2023-12-20T06:02:16;1.00;;;0.63;;
43801;SDS011;29429;51.074;13.764;2023-12-20T06:04:43;2.63;;;1.30;;
43801;SDS011;29429;51.074;13.764;2023-12-20T06:07:11;1.60;;;1.23;;
43801;SDS011;29429;51.074;13.764;2023-12-20T06:09:39;0.68;;;0.68;;
43801;SDS011;29429;51.074;13.764;2023-12-20T06:12:06;3.47;;;0.90;;
43801;SDS011;29429;51.074;13.764;2023-12-20T06:14:34;1.08;;;0.73;;
43801;SDS011;29429;51.074;13.764;2023-12-20T06:17:01;0.75;;;0.70;;
43801;SDS011;29429;51.074;13.764;2023-12-20T06:19:29;1.63;;;0.82;;
43801;SDS011;29429;51.074;13.764;2023-12-20T06:21:56;1.40;;;0.80;;
43801;SDS011;29429;51.074;13.764;2023-12-20T06:24:23;3.53;;;1.10;;
43801;SDS011;29429;51.074;13.764;2023-12-20T06:26:54;1.88;;;1.15;;
43801;SDS011;29429;51.074;13.764;2023-12-20T06:29:21;0.85;;;0.75;;
43801;SDS011;29429;51.074;13.764;2023-12-20T06:31:48;1.98;;;1.20;;
43801;SDS011;29429;51.074;13.764;2023-12-20T06:34:16;2.05;;;1.00;;
43801;SDS011;29429;51.074;13.764;2023-12-20T06:36:43;2.45;;;1.13;;
43801;SDS011;29429;51.074;13.764;2023-12-20T06:39:10;2.60;;;1.20;;
43801;SDS011;29429;51.074;13.764;2023-12-20T06:41:38;1.77;;;1.20;;
43801;SDS011;29429;51.074;13.764;2023-12-20T06:44:05;3.65;;;1.30;;
43801;SDS011;29429;51.074;13.764;2023-12-20T06:46:36;3.17;;;1.98;;
43801;SDS011;29429;51.074;13.764;2023-12-20T06:49:05;2.25;;;1.58;;
43801;SDS011;29429;51.074;13.764;2023-12-20T06:51:32;2.50;;;1.67;;
43801;SDS011;29429;51.074;13.764;2023-12-20T06:53:59;1.73;;;1.58;;
43801;SDS011;29429;51.074;13.764;2023-12-20T06:56:28;2.33;;;1.90;;
43801;SDS011;29429;51.074;13.764;2023-12-20T06:58:55;2.03;;;1.67;;
43801;SDS011;29429;51.074;13.764;2023-12-20T07:01:22;3.67;;;2.15;;
43801;SDS011;29429;51.074;13.764;2023-12-20T07:03:49;2.38;;;1.85;;
43801;SDS011;29429;51.074;13.764;2023-12-20T07:06:16;4.15;;;2.60;;
43801;SDS011;29429;51.074;13.764;2023-12-20T07:08:43;2.70;;;2.50;;
43801;SDS011;29429;51.074;13.764;2023-12-20T07:11:10;4.50;;;3.53;;
43801;SDS011;29429;51.074;13.764;2023-12-20T07:13:37;5.03;;;3.28;;
43801;SDS011;29429;51.074;13.764;2023-12-20T07:16:05;4.80;;;3.08;;
43801;SDS011;29429;51.074;13.764;2023-12-20T07:18:32;6.70;;;3.50;;
43801;SDS011;29429;51.074;13.764;2023-12-20T07:20:59;4.55;;;3.45;;
43801;SDS011;29429;51.074;13.764;2023-12-20T07:23:26;4.13;;;3.45;;
43801;SDS011;29429;51.074;13.764;2023-12-20T07:25:53;4.47;;;3.58;;
43801;SDS011;29429;51.074;13.764;2023-12-20T07:28:20;5.13;;;3.78;;
43801;SDS011;29429;51.074;13.764;2023-12-20T07:30:47;4.90;;;3.95;;
43801;SDS011;29429;51.074;13.764;2023-12-20T07:33:14;6.45;;;3.85;;
43801;SDS011;29429;51.074;13.764;2023-12-20T07:35:41;5.63;;;4.70;;
43801;SDS011;29429;51.074;13.764;2023-12-20T07:38:09;6.85;;;4.25;;
43801;SDS011;29429;51.074;13.764;2023-12-20T07:40:36;5.65;;;4.15;;
43801;SDS011;29429;51.074;13.764;2023-12-20T07:43:03;4.90;;;4.20;;
43801;SDS011;29429;51.074;13.764;2023-12-20T07:45:30;6.10;;;5.03;;
43801;SDS011;29429;51.074;13.764;2023-12-20T07:47:57;5.70;;;4.20;;
43801;SDS011;29429;51.074;13.764;2023-12-20T07:50:24;5.32;;;4.45;;
43801;SDS011;29429;51.074;13.764;2023-12-20T07:52:52;7.53;;;4.68;;
43801;SDS011;29429;51.074;13.764;2023-12-20T07:55:19;9.07;;;3.80;;
43801;SDS011;29429;51.074;13.764;2023-12-20T07:57:46;5.43;;;3.35;;
43801;SDS011;29429;51.074;13.764;2023-12-20T08:00:17;4.95;;;3.70;;
43801;SDS011;29429;51.074;13.764;2023-12-20T08:02:44;4.90;;;3.45;;
43801;SDS011;29429;51.074;13.764;2023-12-20T08:05:11;6.53;;;3.88;;
43801;SDS011;29429;51.074;13.764;2023-12-20T08:07:38;11.77;;;4.35;;
43801;SDS011;29429;51.074;13.764;2023-12-20T08:10:05;5.28;;;3.90;;
43801;SDS011;29429;51.074;13.764;2023-12-20T08:12:33;4.65;;;3.95;;
43801;SDS011;29429;51.074;13.764;2023-12-20T08:15:01;7.93;;;4.10;;
43801;SDS011;29429;51.074;13.764;2023-12-20T08:17:28;9.10;;;4.75;;
43801;SDS011;29429;51.074;13.764;2023-12-20T08:19:55;8.93;;;4.90;;
43801;SDS011;29429;51.074;13.764;2023-12-20T08:22:23;5.35;;;3.92;;
43801;SDS011;29429;51.074;13.764;2023-12-20T08:24:50;4.63;;;3.03;;
43801;SDS011;29429;51.074;13.764;2023-12-20T08:27:17;5.75;;;3.65;;
43801;SDS011;29429;51.074;13.764;2023-12-20T08:29:44;6.97;;;3.50;;
43801;SDS011;29429;51.074;13.764;2023-12-20T08:32:11;6.10;;;2.97;;
43801;SDS011;29429;51.074;13.764;2023-12-20T08:34:39;4.57;;;2.65;;
43801;SDS011;29429;51.074;13.764;2023-12-20T08:37:06;5.38;;;3.05;;
43801;SDS011;29429;51.074;13.764;2023-12-20T08:39:33;4.43;;;2.55;;
43801;SDS011;29429;51.074;13.764;2023-12-20T08:42:00;6.32;;;3.17;;
43801;SDS011;29429;51.074;13.764;2023-12-20T08:44:27;3.78;;;2.65;;
43801;SDS011;29429;51.074;13.764;2023-12-20T08:46:53;5.88;;;3.08;;
43801;SDS011;29429;51.074;13.764;2023-12-20T08:49:23;6.13;;;2.75;;
43801;SDS011;29429;51.074;13.764;2023-12-20T08:51:52;4.05;;;2.05;;
43801;SDS011;29429;51.074;13.764;2023-12-20T08:54:19;4.55;;;2.40;;
43801;SDS011;29429;51.074;13.764;2023-12-20T08:56:46;2.83;;;1.98;;
43801;SDS011;29429;51.074;13.764;2023-12-20T08:59:13;5.75;;;2.30;;
43801;SDS011;29429;51.074;13.764;2023-12-20T09:01:40;6.63;;;2.67;;
43801;SDS011;29429;51.074;13.764;2023-12-20T09:04:07;3.75;;;1.80;;
43801;SDS011;29429;51.074;13.764;2023-12-20T09:06:34;4.10;;;2.00;;
43801;SDS011;29429;51.074;13.764;2023-12-20T09:09:01;1.92;;;1.15;;
43801;SDS011;29429;51.074;13.764;2023-12-20T09:11:28;2.90;;;1.40;;
43801;SDS011;29429;51.074;13.764;2023-12-20T09:13:56;3.63;;;1.10;;
43801;SDS011;29429;51.074;13.764;2023-12-20T09:16:23;4.30;;;1.55;;
43801;SDS011;29429;51.074;13.764;2023-12-20T09:18:50;6.35;;;1.95;;
43801;SDS011;29429;51.074;13.764;2023-12-20T09:21:18;4.18;;;1.27;;
43801;SDS011;29429;51.074;13.764;2023-12-20T09:23:45;4.40;;;1.50;;
43801;SDS011;29429;51.074;13.764;2023-12-20T09:26:12;6.57;;;1.77;;
43801;SDS011;29429;51.074;13.764;2023-12-20T09:28:39;5.22;;;1.55;;
43801;SDS011;29429;51.074;13.764;2023-12-20T09:31:07;6.57;;;1.38;;
43801;SDS011;29429;51.074;13.764;2023-12-20T09:33:34;3.88;;;1.35;;
43801;SDS011;29429;51.074;13.764;2023-12-20T09:36:01;7.30;;;1.77;;
43801;SDS011;29429;51.074;13.764;2023-12-20T09:38:28;3.72;;;1.13;;
43801;SDS011;29429;51.074;13.764;2023-12-20T09:40:55;3.42;;;1.30;;
43801;SDS011;29429;51.074;13.764;2023-12-20T09:43:23;2.60;;;1.10;;
43801;SDS011;29429;51.074;13.764;2023-12-20T09:45:56;4.32;;;1.42;;
43801;SDS011;29429;51.074;13.764;2023-12-20T09:48:28;3.40;;;1.40;;
43801;SDS011;29429;51.074;13.764;2023-12-20T09:50:57;4.78;;;1.48;;
43801;SDS011;29429;51.074;13.764;2023-12-20T09:53:24;3.30;;;1.00;;
43801;SDS011;29429;51.074;13.764;2023-12-20T09:55:59;4.10;;;1.00;;
43801;SDS011;29429;51.074;13.764;2023-12-20T09:58:29;2.95;;;1.30;;
43801;SDS011;29429;51.074;13.764;2023-12-20T10:00:56;2.90;;;1.30;;
43801;SDS011;29429;51.074;13.764;2023-12-20T10:03:25;5.38;;;1.27;;
43801;SDS011;29429;51.074;13.764;2023-12-20T10:05:54;5.22;;;1.58;;
43801;SDS011;29429;51.074;13.764;2023-12-20T10:08:24;3.05;;;1.10;;
43801;SDS011;29429;51.074;13.764;2023-12-20T10:10:51;5.45;;;1.75;;
43801;SDS011;29429;51.074;13.764;2023-12-20T10:13:18;6.50;;;1.70;;
43801;SDS011;29429;51.074;13.764;2023-12-20T10:15:46;4.45;;;1.60;;
43801;SDS011;29429;51.074;13.764;2023-12-20T10:18:13;3.95;;;1.20;;
43801;SDS011;29429;51.074;13.764;2023-12-20T10:20:43;3.15;;;1.45;;
43801;SDS011;29429;51.074;13.764;2023-12-20T10:23:12;2.97;;;1.10;;
43801;SDS011;29429;51.074;13.764;2023-12-20T10:25:40;4.68;;;1.45;;
43801;SDS011;29429;51.074;13.764;2023-12-20T10:28:11;2.63;;;1.00;;
43801;SDS011;29429;51.074;13.764;2023-12-20T10:30:47;3.88;;;1.42;;
43801;SDS011;29429;51.074;13.764;2023-12-20T10:33:23;4.10;;;1.38;;
43801;SDS011;29429;51.074;13.764;2023-12-20T10:35:54;4.72;;;1.90;;
43801;SDS011;29429;51.074;13.764;2023-12-20T10:38:22;5.85;;;1.60;;
43801;SDS011;29429;51.074;13.764;2023-12-20T10:40:49;5.50;;;1.65;;
43801;SDS011;29429;51.074;13.764;2023-12-20T10:43:22;3.53;;;1.40;;
43801;SDS011;29429;51.074;13.764;2023-12-20T10:45:53;5.03;;;1.40;;
43801;SDS011;29429;51.074;13.764;2023-12-20T10:48:20;4.90;;;1.60;;
43801;SDS011;29429;51.074;13.764;2023-12-20T10:50:54;5.53;;;1.65;;
43801;SDS011;29429;51.074;13.764;2023-12-20T10:53:22;6.25;;;2.10;;
43801;SDS011;29429;51.074;13.764;2023-12-20T10:55:52;7.35;;;1.92;;
43801;SDS011;29429;51.074;13.764;2023-12-20T10:58:25;4.10;;;1.60;;
43801;SDS011;29429;51.074;13.764;2023-12-20T11:00:59;7.65;;;1.92;;
43801;SDS011;29429;51.074;13.764;2023-12-20T11:03:32;4.88;;;1.65;;
43801;SDS011;29429;51.074;13.764;2023-12-20T11:06:07;4.50;;;2.00;;
43801;SDS011;29429;51.074;13.764;2023-12-20T11:08:49;5.70;;;1.40;;
43801;SDS011;29429;51.074;13.764;2023-12-20T11:14:23;3.25;;;1.60;;
43801;SDS011;29429;51.074;13.764;2023-12-20T11:17:10;6.45;;;1.52;;
43801;SDS011;29429;51.074;13.764;2023-12-20T11:20:03;3.10;;;1.60;;
43801;SDS011;29429;51.074;13.764;2023-12-20T11:22:32;4.20;;;1.77;;
43801;SDS011;29429;51.074;13.764;2023-12-20T11:25:11;4.43;;;1.50;;
43801;SDS011;29429;51.074;13.764;2023-12-20T11:27:41;3.97;;;1.42;;
43801;SDS011;29429;51.074;13.764;2023-12-20T11:30:12;7.60;;;2.50;;
43801;SDS011;29429;51.074;13.764;2023-12-20T11:32:41;7.30;;;1.70;;
43801;SDS011;29429;51.074;13.764;2023-12-20T11:37:37;7.07;;;2.47;;
43801;SDS011;29429;51.074;13.764;2023-12-20T11:40:16;6.35;;;1.40;;
43801;SDS011;29429;51.074;13.764;2023-12-20T11:42:45;4.28;;;1.70;;
43801;SDS011;29429;51.074;13.764;2023-12-20T11:45:22;2.55;;;1.50;;
43801;SDS011;29429;51.074;13.764;2023-12-20T11:47:55;4.20;;;1.70;;
43801;SDS011;29429;51.074;13.764;2023-12-20T11:50:24;5.28;;;1.50;;
43801;SDS011;29429;51.074;13.764;2023-12-20T11:52:57;4.45;;;1.73;;
43801;SDS011;29429;51.074;13.764;2023-12-20T11:55:24;4.38;;;2.03;;
43801;SDS011;29429;51.074;13.764;2023-12-20T11:57:52;6.43;;;2.17;;
43801;SDS011;29429;51.074;13.764;2023-12-20T12:00:20;4.88;;;1.50;;
43801;SDS011;29429;51.074;13.764;2023-12-20T12:02:59;5.45;;;1.70;;
43801;SDS011;29429;51.074;13.764;2023-12-20T12:05:47;2.58;;;1.33;;
43801;SDS011;29429;51.074;13.764;2023-12-20T12:08:32;7.40;;;2.00;;
43801;SDS011;29429;51.074;13.764;2023-12-20T12:10:59;2.58;;;1.10;;
43801;SDS011;29429;51.074;13.764;2023-12-20T12:13:26;3.38;;;1.20;;
43801;SDS011;29429;51.074;13.764;2023-12-20T12:15:54;3.35;;;1.42;;
43801;SDS011;29429;51.074;13.764;2023-12-20T12:18:21;3.83;;;1.48;;
43801;SDS011;29429;51.074;13.764;2023-12-20T12:20:48;3.80;;;1.20;;
43801;SDS011;29429;51.074;13.764;2023-12-20T12:23:22;2.67;;;1.63;;
43801;SDS011;29429;51.074;13.764;2023-12-20T12:25:50;5.20;;;1.75;;
43801;SDS011;29429;51.074;13.764;2023-12-20T12:28:18;5.30;;;1.42;;
43801;SDS011;29429;51.074;13.764;2023-12-20T12:30:56;8.80;;;1.73;;
43801;SDS011;29429;51.074;13.764;2023-12-20T12:33:25;4.45;;;1.67;;
43801;SDS011;29429;51.074;13.764;2023-12-20T12:35:53;5.03;;;1.42;;
43801;SDS011;29429;51.074;13.764;2023-12-20T12:38:21;3.45;;;1.50;;
43801;SDS011;29429;51.074;13.764;2023-12-20T12:40:49;2.17;;;1.30;;
43801;SDS011;29429;51.074;13.764;2023-12-20T12:43:17;5.38;;;1.70;;
43801;SDS011;29429;51.074;13.764;2023-12-20T12:45:43;12.55;;;2.45;;
43801;SDS011;29429;51.074;13.764;2023-12-20T12:48:11;5.70;;;2.15;;
43801;SDS011;29429;51.074;13.764;2023-12-20T12:50:38;4.70;;;1.50;;
43801;SDS011;29429;51.074;13.764;2023-12-20T12:53:05;4.45;;;1.67;;
43801;SDS011;29429;51.074;13.764;2023-12-20T12:55:33;6.95;;;1.50;;
43801;SDS011;29429;51.074;13.764;2023-12-20T12:58:02;5.63;;;1.42;;
43801;SDS011;29429;51.074;13.764;2023-12-20T13:00:29;5.07;;;1.50;;
43801;SDS011;29429;51.074;13.764;2023-12-20T13:02:56;3.70;;;2.03;;
43801;SDS011;29429;51.074;13.764;2023-12-20T13:05:23;4.68;;;1.25;;
43801;SDS011;29429;51.074;13.764;2023-12-20T13:07:50;4.97;;;1.60;;
43801;SDS011;29429;51.074;13.764;2023-12-20T13:10:17;4.75;;;1.50;;
43801;SDS011;29429;51.074;13.764;2023-12-20T13:12:44;5.40;;;1.30;;
43801;SDS011;29429;51.074;13.764;2023-12-20T13:15:12;5.57;;;1.73;;
43801;SDS011;29429;51.074;13.764;2023-12-20T13:17:39;3.63;;;1.60;;
43801;SDS011;29429;51.074;13.764;2023-12-20T13:20:07;5.50;;;1.88;;
43801;SDS011;29429;51.074;13.764;2023-12-20T13:22:34;6.15;;;1.83;;
43801;SDS011;29429;51.074;13.764;2023-12-20T13:25:02;4.43;;;1.50;;
43801;SDS011;29429;51.074;13.764;2023-12-20T13:27:29;5.30;;;1.88;;
43801;SDS011;29429;51.074;13.764;2023-12-20T13:29:57;9.80;;;2.22;;
43801;SDS011;29429;51.074;13.764;2023-12-20T13:32:24;4.03;;;1.40;;
43801;SDS011;29429;51.074;13.764;2023-12-20T13:34:52;3.33;;;1.20;;
43801;SDS011;29429;51.074;13.764;2023-12-20T13:37:19;2.50;;;1.30;;
43801;SDS011;29429;51.074;13.764;2023-12-20T13:39:47;4.30;;;1.38;;
43801;SDS011;29429;51.074;13.764;2023-12-20T13:42:14;5.03;;;1.38;;
43801;SDS011;29429;51.074;13.764;2023-12-20T13:44:41;9.13;;;1.73;;
43801;SDS011;29429;51.074;13.764;2023-12-20T13:47:08;4.70;;;1.50;;
43801;SDS011;29429;51.074;13.764;2023-12-20T13:49:35;4.82;;;1.33;;
43801;SDS011;29429;51.074;13.764;2023-12-20T13:52:02;6.35;;;1.67;;
43801;SDS011;29429;51.074;13.764;2023-12-20T13:54:30;7.80;;;1.63;;
43801;SDS011;29429;51.074;13.764;2023-12-20T13:56:57;5.18;;;1.30;;
43801;SDS011;29429;51.074;13.764;2023-12-20T13:59:38;5.30;;;1.70;;
43801;SDS011;29429;51.074;13.764;2023-12-20T14:02:05;5.45;;;1.40;;
43801;SDS011;29429;51.074;13.764;2023-12-20T14:04:32;5.53;;;1.42;;
43801;SDS011;29429;51.074;13.764;2023-12-20T14:07:09;4.90;;;1.90;;
43801;SDS011;29429;51.074;13.764;2023-12-20T14:09:39;5.13;;;1.55;;
43801;SDS011;29429;51.074;13.764;2023-12-20T14:12:12;4.25;;;1.55;;
43801;SDS011;29429;51.074;13.764;2023-12-20T14:14:39;5.35;;;1.40;;
43801;SDS011;29429;51.074;13.764;2023-12-20T14:17:06;4.25;;;1.23;;
43801;SDS011;29429;51.074;13.764;2023-12-20T14:19:33;3.88;;;1.30;;
43801;SDS011;29429;51.074;13.764;2023-12-20T14:22:01;3.95;;;1.48;;
43801;SDS011;29429;51.074;13.764;2023-12-20T14:24:28;3.10;;;1.42;;
43801;SDS011;29429;51.074;13.764;2023-12-20T14:26:55;3.70;;;1.60;;
43801;SDS011;29429;51.074;13.764;2023-12-20T14:29:22;4.25;;;1.25;;
43801;SDS011;29429;51.074;13.764;2023-12-20T14:31:52;7.68;;;1.30;;
43801;SDS011;29429;51.074;13.764;2023-12-20T14:34:19;3.67;;;1.38;;
43801;SDS011;29429;51.074;13.764;2023-12-20T14:36:46;4.07;;;1.52;;
43801;SDS011;29429;51.074;13.764;2023-12-20T14:39:13;3.10;;;1.30;;
43801;SDS011;29429;51.074;13.764;2023-12-20T14:41:41;5.55;;;1.05;;
43801;SDS011;29429;51.074;13.764;2023-12-20T14:44:08;3.55;;;1.15;;